Terminal Aerodrome Forecast
Issued by NWS Cleveland, OH

Home | Current Version | Previous Version | Text Only | Print | Product List | Glossary Off
Versions: 1 2 3 4 5 6 7 8 9 10 11 12 13 14 15 16 17 18 19 20 21 22 23 24 25 26 27

000
FTUS41 KCLE 052339
TAFCLE
TAF
KCLE 052339Z 0600/0706 23005KT P6SM OVC025
      TEMPO 0602/0604 SCT025 OVC100
     FM060400 12003KT P6SM SCT025 BKN100
     FM061500 08008KT 5SM -RA OVC025
     FM061700 11010G18KT 3SM -RA BR OVC008
     FM070100 26012G20KT P6SM OVC025=

USA.gov is the U.S. government's official web portal to all federal, state and local government web resources and services.